createdAt,value
2019-03-29T00:02:31.428Z,70.97
2019-03-29T00:05:03.993Z,71.10
2019-03-29T00:07:39.947Z,71.32
2019-03-29T00:10:10.957Z,71.56
2019-03-29T00:12:43.462Z,71.80
2019-03-29T00:15:15.995Z,71.86
2019-03-29T00:17:48.537Z,72.12
2019-03-29T00:20:21.084Z,72.63
2019-03-29T00:22:53.633Z,72.50
2019-03-29T00:25:26.183Z,73.00
2019-03-29T00:27:58.683Z,73.70
2019-03-29T00:30:31.208Z,73.30
2019-03-29T00:33:03.695Z,73.40
2019-03-29T00:35:36.248Z,73.40
2019-03-29T00:38:08.784Z,73.66
2019-03-29T00:40:41.346Z,73.66
2019-03-29T00:43:13.870Z,73.88
2019-03-29T00:45:46.377Z,73.62
2019-03-29T00:48:18.903Z,73.88
2019-03-29T00:50:51.430Z,73.98
2019-03-29T00:53:23.916Z,73.88
2019-03-29T00:55:56.497Z,74.03
2019-03-29T00:58:29.025Z,73.51
2019-03-29T01:01:01.545Z,73.10
2019-03-29T01:03:34.034Z,73.83
2019-03-29T01:06:06.567Z,74.28
2019-03-29T01:08:39.095Z,73.96
2019-03-29T01:11:11.614Z,73.60
2019-03-29T01:13:44.153Z,73.75
2019-03-29T01:16:16.671Z,74.02
2019-03-29T01:18:49.217Z,74.08
2019-03-29T01:21:21.704Z,74.28
2019-03-29T01:23:54.259Z,74.41
2019-03-29T01:26:27.168Z,74.67
2019-03-29T01:28:59.887Z,74.54
2019-03-29T01:31:32.393Z,74.57
2019-03-29T01:34:04.909Z,74.68
2019-03-29T01:36:37.426Z,74.53
2019-03-29T01:39:09.982Z,74.53
2019-03-29T01:41:42.490Z,74.36
2019-03-29T01:44:15.031Z,74.56
2019-03-29T01:46:47.532Z,74.66
2019-03-29T01:49:20.093Z,75.02
2019-03-29T01:51:53.923Z,75.58
2019-03-29T01:54:26.590Z,75.27
2019-03-29T01:56:59.074Z,75.40
2019-03-29T01:59:31.636Z,75.35
2019-03-29T02:02:04.133Z,75.35
2019-03-29T02:04:36.654Z,75.44
2019-03-29T02:07:09.204Z,75.62
2019-03-29T02:09:41.717Z,75.53
2019-03-29T02:12:14.222Z,74.59
2019-03-29T02:14:47.016Z,74.96
2019-03-29T02:17:19.551Z,75.17
2019-03-29T02:19:52.053Z,75.68
2019-03-29T02:22:24.572Z,75.71
2019-03-29T02:24:57.088Z,75.90
2019-03-29T02:27:29.646Z,76.30
2019-03-29T02:30:04.363Z,76.41
2019-03-29T02:32:36.578Z,76.43
2019-03-29T02:35:09.100Z,76.85
2019-03-29T02:37:41.619Z,77.22
2019-03-29T02:40:14.124Z,77.37
2019-03-29T02:42:46.622Z,77.33
2019-03-29T02:45:19.167Z,77.07
2019-03-29T02:47:51.674Z,77.19
2019-03-29T02:50:24.184Z,78.40
2019-03-29T02:52:56.697Z,77.81
2019-03-29T02:55:29.258Z,77.67
2019-03-29T02:58:01.779Z,77.70
2019-03-29T03:00:34.292Z,77.76
2019-03-29T03:03:06.893Z,78.05
2019-03-29T03:05:39.403Z,77.66
2019-03-29T03:08:11.884Z,77.23
2019-03-29T03:10:44.456Z,77.10
2019-03-29T03:13:16.988Z,77.22
2019-03-29T03:15:49.517Z,77.02
2019-03-29T03:18:21.990Z,77.43
2019-03-29T03:20:54.500Z,77.42
2019-03-29T03:23:26.985Z,77.07
2019-03-29T03:25:59.498Z,77.34
2019-03-29T03:28:32.017Z,76.52
2019-03-29T03:31:04.523Z,76.37
2019-03-29T03:33:37.016Z,76.26
2019-03-29T03:36:09.531Z,76.09
2019-03-29T03:38:42.029Z,76.65
2019-03-29T03:41:14.533Z,76.58
2019-03-29T03:43:47.033Z,77.05
2019-03-29T03:46:19.543Z,78.26
2019-03-29T03:48:52.032Z,78.67
2019-03-29T03:51:24.652Z,77.87
2019-03-29T03:53:57.154Z,77.17
2019-03-29T03:56:30.560Z,76.43
2019-03-29T03:59:03.212Z,76.20
2019-03-29T04:01:35.740Z,75.58
2019-03-29T04:04:08.230Z,75.80
2019-03-29T04:06:41.197Z,75.92
2019-03-29T04:09:13.675Z,75.77
2019-03-29T04:11:46.195Z,75.73
2019-03-29T04:14:18.739Z,75.93
2019-03-29T04:16:51.265Z,76.09
2019-03-29T04:19:23.801Z,76.52
2019-03-29T04:21:56.310Z,77.18
2019-03-29T04:24:28.793Z,77.71
2019-03-29T04:27:01.303Z,78.37
2019-03-29T04:29:33.827Z,78.62
2019-03-29T04:32:06.295Z,79.07
2019-03-29T04:34:38.867Z,79.26
2019-03-29T04:37:11.359Z,79.16
2019-03-29T04:39:43.875Z,78.72
2019-03-29T04:42:16.535Z,78.16
2019-03-29T04:44:49.056Z,78.26
2019-03-29T04:47:21.591Z,78.57
2019-03-29T04:49:54.091Z,78.84
2019-03-29T04:52:26.580Z,78.92
2019-03-29T04:54:59.133Z,79.07
2019-03-29T04:57:31.622Z,79.08
2019-03-29T05:00:04.445Z,78.55
2019-03-29T05:02:36.964Z,78.52
2019-03-29T05:05:09.497Z,78.62
2019-03-29T05:07:42.171Z,78.82
2019-03-29T05:10:21.043Z,78.80
2019-03-29T05:12:49.112Z,79.12
2019-03-29T05:15:21.646Z,79.47
2019-03-29T05:17:54.142Z,79.57
2019-03-29T05:20:26.693Z,79.57
2019-03-29T05:22:59.182Z,79.53
2019-03-29T05:25:31.736Z,79.61
2019-03-29T05:28:04.256Z,79.16
2019-03-29T05:30:36.756Z,78.64
2019-03-29T05:33:09.292Z,78.28
2019-03-29T05:35:41.813Z,78.40
2019-03-29T05:38:14.341Z,78.76
2019-03-29T05:40:46.826Z,78.91
2019-03-29T05:43:19.332Z,78.89
2019-03-29T05:45:51.826Z,79.01
2019-03-29T05:48:24.377Z,78.94
2019-03-29T05:50:56.878Z,79.44
2019-03-29T05:53:29.388Z,79.20
2019-03-29T05:56:01.993Z,79.21
2019-03-29T05:58:34.544Z,79.28
2019-03-29T06:01:07.094Z,78.37
2019-03-29T06:03:39.703Z,77.10
2019-03-29T06:06:12.219Z,75.87
2019-03-29T06:08:44.765Z,74.76
2019-03-29T06:11:17.269Z,74.39
2019-03-29T06:13:49.841Z,74.25
2019-03-29T06:16:22.341Z,73.77
2019-03-29T06:18:54.900Z,72.91
2019-03-29T06:21:27.449Z,73.00
2019-03-29T06:23:59.994Z,72.50
2019-03-29T06:26:32.489Z,71.79
2019-03-29T06:29:05.034Z,70.79
2019-03-29T06:31:37.545Z,69.30
2019-03-29T06:34:10.106Z,67.68
2019-03-29T06:36:42.742Z,66.65
2019-03-29T06:39:15.487Z,66.00
2019-03-29T06:41:47.978Z,65.91
2019-03-29T06:44:20.469Z,64.56
2019-03-29T06:46:53.009Z,63.15
2019-03-29T06:49:25.551Z,63.07
2019-03-29T06:51:58.044Z,60.33
2019-03-29T06:54:30.563Z,60.33
2019-03-29T06:57:03.067Z,59.13
2019-03-29T06:59:35.593Z,57.75
2019-03-29T07:02:08.086Z,57.40
2019-03-29T07:04:40.636Z,56.37
2019-03-29T07:07:13.111Z,54.34
2019-03-29T07:09:45.632Z,52.32
2019-03-29T07:12:18.958Z,52.15
2019-03-29T07:14:51.478Z,52.39
2019-03-29T07:17:23.967Z,52.06
2019-03-29T07:19:56.482Z,51.66
2019-03-29T07:22:28.984Z,53.09
2019-03-29T07:25:01.494Z,52.80
2019-03-29T07:27:44.617Z,54.09
2019-03-29T07:30:08.475Z,53.51
2019-03-29T07:32:41.022Z,53.35
2019-03-29T07:35:13.586Z,53.10
2019-03-29T07:37:46.048Z,52.93
2019-03-29T07:40:18.576Z,54.54
2019-03-29T07:42:51.084Z,54.37
2019-03-29T07:45:23.600Z,54.82
2019-03-29T07:47:56.102Z,54.13
2019-03-29T07:50:28.645Z,54.62
2019-03-29T07:53:01.152Z,55.21
2019-03-29T07:55:37.071Z,53.87
2019-03-29T07:58:08.057Z,53.25
2019-03-29T08:00:40.602Z,53.20
2019-03-29T08:03:13.095Z,53.62
2019-03-29T08:05:45.614Z,52.84
2019-03-29T08:08:24.613Z,53.07
2019-03-29T08:10:53.968Z,52.87
2019-03-29T08:13:26.719Z,52.35
2019-03-29T08:15:59.272Z,51.52
2019-03-29T08:18:31.771Z,51.41
2019-03-29T08:21:04.322Z,49.85
2019-03-29T08:23:36.903Z,49.14
2019-03-29T08:26:09.434Z,49.14
2019-03-29T08:28:41.961Z,49.88
2019-03-29T08:31:14.484Z,49.40
2019-03-29T08:33:46.991Z,49.14
2019-03-29T08:36:19.524Z,49.83
2019-03-29T08:38:52.026Z,49.45
2019-03-29T08:41:24.518Z,49.66
2019-03-29T08:43:57.073Z,49.80
2019-03-29T08:46:29.565Z,49.50
2019-03-29T08:49:02.073Z,49.48
2019-03-29T08:51:34.581Z,48.27
2019-03-29T08:54:07.090Z,47.50
2019-03-29T08:56:39.602Z,47.87
2019-03-29T08:59:12.140Z,46.66
2019-03-29T09:01:44.634Z,46.95
2019-03-29T09:04:17.156Z,47.85
2019-03-29T09:06:53.641Z,48.32
2019-03-29T09:09:24.119Z,47.37
2019-03-29T09:11:56.636Z,47.59
2019-03-29T09:14:31.425Z,46.96
2019-03-29T09:17:03.549Z,45.46
2019-03-29T09:19:36.098Z,46.44
2019-03-29T09:22:08.585Z,44.62
2019-03-29T09:24:41.110Z,41.97
2019-03-29T09:27:13.611Z,43.46
2019-03-29T09:29:46.140Z,44.05
2019-03-29T09:32:18.647Z,43.97
2019-03-29T09:34:51.188Z,43.80
2019-03-29T09:37:23.694Z,44.40
2019-03-29T09:39:56.199Z,43.84
2019-03-29T09:42:30.215Z,44.55
2019-03-29T09:45:03.101Z,44.64
2019-03-29T09:47:40.182Z,44.97
2019-03-29T09:50:10.819Z,44.75
2019-03-29T09:52:43.433Z,43.39
2019-03-29T09:55:18.847Z,43.01
2019-03-29T09:57:50.337Z,42.31
2019-03-29T10:00:23.641Z,43.09
2019-03-29T10:02:56.333Z,42.60
2019-03-29T10:05:31.269Z,41.92
2019-03-29T10:08:03.238Z,41.27
2019-03-29T10:10:35.801Z,41.35
2019-03-29T10:13:08.287Z,41.13
2019-03-29T10:15:40.845Z,40.61
2019-03-29T10:18:13.340Z,41.50
2019-03-29T10:20:45.871Z,41.47
2019-03-29T10:23:18.400Z,42.09
2019-03-29T10:25:50.927Z,41.83
2019-03-29T10:28:23.425Z,40.14
2019-03-29T10:30:55.953Z,40.58
2019-03-29T10:33:28.426Z,40.16
2019-03-29T10:36:00.920Z,40.08
2019-03-29T10:38:33.403Z,39.83
2019-03-29T10:41:05.952Z,40.10
2019-03-29T10:43:38.438Z,39.44
2019-03-29T10:46:10.993Z,38.61
2019-03-29T10:48:43.474Z,38.40
2019-03-29T10:51:15.999Z,37.59
2019-03-29T10:53:48.508Z,36.99
2019-03-29T10:56:33.461Z,38.06
2019-03-29T10:58:55.489Z,38.25
2019-03-29T11:01:28.009Z,38.57
2019-03-29T11:04:00.542Z,36.86
2019-03-29T11:06:33.059Z,36.81
2019-03-29T11:09:06.757Z,37.12
2019-03-29T11:11:39.300Z,37.37
2019-03-29T11:14:11.790Z,36.70
2019-03-29T11:16:44.353Z,37.03
2019-03-29T11:19:16.839Z,36.46
2019-03-29T11:21:49.367Z,36.86
2019-03-29T11:24:21.870Z,37.73
2019-03-29T11:26:54.352Z,38.33
2019-03-29T11:29:26.924Z,37.33
2019-03-29T11:31:59.431Z,37.67
2019-03-29T11:34:31.942Z,38.04
2019-03-29T11:37:04.469Z,38.66
2019-03-29T11:39:36.989Z,39.18
2019-03-29T11:42:09.490Z,38.79
2019-03-29T11:44:42.045Z,38.86
2019-03-29T11:47:14.550Z,38.42
2019-03-29T11:49:47.065Z,38.29
2019-03-29T11:52:19.573Z,38.18
2019-03-29T11:54:52.203Z,38.17
2019-03-29T11:57:24.739Z,38.99
2019-03-29T11:59:57.320Z,39.17
2019-03-29T12:02:31.566Z,39.01
2019-03-29T12:05:04.954Z,38.72
2019-03-29T12:07:37.481Z,37.93
2019-03-29T12:10:10.026Z,37.61
2019-03-29T12:12:42.557Z,38.35
2019-03-29T12:15:15.109Z,37.88
2019-03-29T12:17:47.719Z,37.07
2019-03-29T12:20:20.252Z,37.20
2019-03-29T12:22:52.790Z,36.94
2019-03-29T12:25:25.310Z,36.96
2019-03-29T12:27:57.864Z,37.36
2019-03-29T12:30:32.337Z,37.57
2019-03-29T12:33:04.934Z,37.74
2019-03-29T12:35:37.507Z,38.49
2019-03-29T12:38:10.026Z,38.40
2019-03-29T12:40:45.053Z,37.70
2019-03-29T12:43:17.011Z,38.02
2019-03-29T12:45:49.557Z,38.06
2019-03-29T12:48:22.077Z,38.28
2019-03-29T12:50:54.617Z,38.33
2019-03-29T12:53:27.176Z,38.41
2019-03-29T12:56:01.766Z,38.40
2019-03-29T12:58:34.316Z,38.59
2019-03-29T13:01:07.052Z,38.19
2019-03-29T13:03:39.860Z,38.17
2019-03-29T13:06:12.405Z,38.04
2019-03-29T13:08:44.928Z,38.02
2019-03-29T13:11:17.458Z,37.86
2019-03-29T13:13:50.110Z,38.23
2019-03-29T13:16:22.621Z,38.32
2019-03-29T13:18:55.112Z,37.69
2019-03-29T13:21:27.735Z,37.81
2019-03-29T13:24:00.265Z,38.22
2019-03-29T13:26:32.817Z,37.27
2019-03-29T13:29:05.462Z,37.68
2019-03-29T13:31:38.008Z,37.75
2019-03-29T13:34:10.547Z,37.13
2019-03-29T13:36:43.077Z,37.62
2019-03-29T13:39:15.710Z,37.10
2019-03-29T13:41:48.281Z,36.77
2019-03-29T13:44:24.536Z,37.20
2019-03-29T13:46:55.293Z,37.77
2019-03-29T13:49:27.788Z,37.36
2019-03-29T13:52:00.321Z,37.60
2019-03-29T13:54:32.825Z,37.54
2019-03-29T13:57:05.367Z,37.06
2019-03-29T13:59:37.899Z,36.82
2019-03-29T14:02:10.439Z,37.03
2019-03-29T14:04:42.964Z,36.63
2019-03-29T14:07:15.488Z,36.82
2019-03-29T14:09:48.048Z,36.92
2019-03-29T14:12:20.585Z,37.54
2019-03-29T14:14:53.128Z,38.08
2019-03-29T14:17:25.662Z,38.42
2019-03-29T14:19:58.199Z,38.11
2019-03-29T14:22:30.747Z,38.18
2019-03-29T14:25:03.533Z,38.24
2019-03-29T14:27:36.124Z,38.25
2019-03-29T14:30:08.728Z,38.19
2019-03-29T14:32:41.294Z,38.28
2019-03-29T14:35:13.800Z,38.09
2019-03-29T14:37:46.365Z,37.40
2019-03-29T14:40:18.895Z,38.04
2019-03-29T14:42:51.425Z,37.58
2019-03-29T14:45:23.948Z,37.50
2019-03-29T14:47:56.499Z,37.86
2019-03-29T14:50:29.014Z,37.00
2019-03-29T14:53:01.527Z,37.04
2019-03-29T14:55:34.093Z,36.71
2019-03-29T14:58:06.630Z,37.02
2019-03-29T15:00:40.994Z,36.65
2019-03-29T15:03:13.620Z,36.54
2019-03-29T15:05:46.170Z,36.78
2019-03-29T15:08:18.759Z,36.93
2019-03-29T15:10:51.336Z,36.91
2019-03-29T15:13:23.899Z,35.76
2019-03-29T15:15:56.421Z,36.41
2019-03-29T15:18:28.991Z,36.39
2019-03-29T15:21:01.645Z,36.50
2019-03-29T15:23:34.162Z,36.90
2019-03-29T15:26:06.760Z,37.34
2019-03-29T15:28:39.281Z,37.06
2019-03-29T15:31:11.790Z,36.50
2019-03-29T15:33:44.332Z,36.93
2019-03-29T15:36:16.904Z,36.91
2019-03-29T15:38:49.918Z,36.43
2019-03-29T15:41:22.473Z,36.87
2019-03-29T15:43:54.987Z,37.30
2019-03-29T15:46:27.529Z,36.80
2019-03-29T15:49:00.038Z,36.79
2019-03-29T15:51:32.594Z,37.13
2019-03-29T15:54:05.164Z,36.80
2019-03-29T15:56:37.698Z,36.88
2019-03-29T15:59:10.242Z,36.83
2019-03-29T16:01:42.902Z,36.96
2019-03-29T16:04:15.454Z,36.18
2019-03-29T16:06:47.969Z,36.09
2019-03-29T16:09:20.543Z,36.40
2019-03-29T16:11:53.087Z,36.35
2019-03-29T16:14:25.698Z,36.84
2019-03-29T16:16:58.261Z,36.53
2019-03-29T16:19:30.778Z,37.61
2019-03-29T16:22:05.923Z,37.40
2019-03-29T16:24:37.820Z,37.26
2019-03-29T16:27:10.414Z,37.61
2019-03-29T16:29:42.967Z,36.81
2019-03-29T16:32:15.505Z,36.82
2019-03-29T16:34:50.523Z,36.84
2019-03-29T16:37:22.486Z,37.03
2019-03-29T16:39:55.011Z,37.43
2019-03-29T16:42:28.607Z,37.26
2019-03-29T16:45:01.171Z,37.24
2019-03-29T16:47:33.738Z,37.78
2019-03-29T16:50:06.944Z,38.21
2019-03-29T16:52:39.458Z,38.05
2019-03-29T16:55:13.997Z,38.35
2019-03-29T16:57:46.474Z,38.19
2019-03-29T17:00:19.032Z,38.19
2019-03-29T17:02:51.621Z,38.22
2019-03-29T17:05:24.135Z,38.28
2019-03-29T17:07:56.703Z,37.62
2019-03-29T17:10:29.275Z,38.33
2019-03-29T17:13:01.836Z,38.36
2019-03-29T17:15:34.331Z,38.61
2019-03-29T17:18:06.864Z,38.20
2019-03-29T17:20:39.407Z,38.46
2019-03-29T17:23:11.950Z,38.92
2019-03-29T17:25:44.482Z,39.15
2019-03-29T17:28:17.041Z,39.76
2019-03-29T17:30:53.193Z,39.68
2019-03-29T17:33:25.722Z,39.64
2019-03-29T17:35:58.235Z,39.69
2019-03-29T17:38:30.789Z,40.31
2019-03-29T17:41:03.321Z,40.91
2019-03-29T17:43:35.881Z,41.25
2019-03-29T17:46:16.218Z,41.71
2019-03-29T17:48:42.881Z,42.33
2019-03-29T17:51:15.405Z,42.75
2019-03-29T17:53:48.125Z,43.30
2019-03-29T17:56:20.654Z,43.99
2019-03-29T17:58:53.199Z,44.51
2019-03-29T18:01:25.787Z,44.48
2019-03-29T18:03:58.393Z,44.73
2019-03-29T18:06:30.951Z,45.14
2019-03-29T18:09:05.826Z,45.60
2019-03-29T18:11:38.415Z,46.36
2019-03-29T18:14:10.988Z,46.75
2019-03-29T18:16:43.549Z,47.28
2019-03-29T18:19:16.070Z,47.81
2019-03-29T18:21:48.614Z,48.39
2019-03-29T18:24:21.150Z,48.59
2019-03-29T18:26:53.743Z,49.00
2019-03-29T18:29:26.301Z,49.66
2019-03-29T18:31:59.005Z,49.95
2019-03-29T18:34:31.716Z,50.41
2019-03-29T18:37:04.290Z,50.58
2019-03-29T18:39:37.030Z,51.24
2019-03-29T18:42:09.604Z,51.57
2019-03-29T18:44:42.244Z,51.80
2019-03-29T18:47:14.772Z,52.27
2019-03-29T18:49:47.343Z,52.42
2019-03-29T18:52:19.940Z,53.10
2019-03-29T18:54:52.457Z,53.51
2019-03-29T18:57:25.009Z,53.61
2019-03-29T18:59:57.635Z,53.87
2019-03-29T19:02:30.218Z,54.00
2019-03-29T19:05:03.003Z,54.29
2019-03-29T19:07:35.565Z,54.66
2019-03-29T19:10:08.120Z,54.96
2019-03-29T19:12:40.743Z,55.51
2019-03-29T19:15:13.373Z,56.12
2019-03-29T19:17:49.242Z,56.27
2019-03-29T19:20:27.986Z,56.63
2019-03-29T19:22:56.730Z,57.15
2019-03-29T19:25:29.370Z,57.43
2019-03-29T19:28:02.013Z,57.45
2019-03-29T19:30:34.602Z,57.55
2019-03-29T19:33:07.206Z,57.72
2019-03-29T19:35:39.822Z,58.02
2019-03-29T19:38:12.441Z,58.50
2019-03-29T19:40:45.020Z,58.71
2019-03-29T19:43:17.667Z,59.23
2019-03-29T19:45:50.302Z,59.29
2019-03-29T19:48:22.822Z,59.86
2019-03-29T19:50:55.423Z,60.16
2019-03-29T19:53:28.089Z,60.37
2019-03-29T19:56:00.752Z,60.24
2019-03-29T19:58:33.341Z,60.44
2019-03-29T20:01:05.971Z,60.44
2019-03-29T20:03:38.573Z,60.49
2019-03-29T20:06:11.186Z,60.79
2019-03-29T20:08:43.748Z,61.21
2019-03-29T20:11:16.381Z,61.38
2019-03-29T20:13:49.449Z,61.70
2019-03-29T20:16:22.062Z,61.55
2019-03-29T20:18:54.735Z,62.00
2019-03-29T20:21:27.344Z,62.03
2019-03-29T20:23:59.949Z,61.93
2019-03-29T20:26:32.548Z,61.96
2019-03-29T20:29:05.166Z,62.13
2019-03-29T20:31:37.824Z,62.39
2019-03-29T20:34:10.406Z,62.47
2019-03-29T20:36:43.066Z,62.55
2019-03-29T20:39:15.630Z,62.62
2019-03-29T20:41:48.276Z,62.77
2019-03-29T20:44:20.899Z,62.71
2019-03-29T20:46:53.537Z,62.88
2019-03-29T20:49:26.163Z,62.90
2019-03-29T20:51:58.785Z,63.07
2019-03-29T20:54:32.683Z,63.29
2019-03-29T20:57:05.362Z,63.26
2019-03-29T20:59:37.890Z,63.53
2019-03-29T21:02:10.541Z,63.77
2019-03-29T21:04:43.089Z,63.89
2019-03-29T21:07:15.675Z,63.83
2019-03-29T21:09:48.279Z,64.05
2019-03-29T21:12:20.876Z,64.09
2019-03-29T21:14:53.422Z,63.99
2019-03-29T21:17:26.010Z,63.78
2019-03-29T21:19:58.580Z,63.97
2019-03-29T21:22:31.282Z,64.13
2019-03-29T21:25:04.594Z,64.23
2019-03-29T21:27:37.453Z,64.38
2019-03-29T21:30:10.350Z,64.57
2019-03-29T21:32:42.944Z,64.49
2019-03-29T21:35:15.545Z,64.91
2019-03-29T21:37:48.422Z,65.09
2019-03-29T21:40:21.002Z,65.76
2019-03-29T21:42:53.558Z,65.80
2019-03-29T21:45:28.863Z,66.05
2019-03-29T21:48:08.916Z,66.21
2019-03-29T21:50:35.006Z,66.48
2019-03-29T21:53:07.599Z,66.91
2019-03-29T21:55:40.207Z,67.00
2019-03-29T21:58:12.756Z,67.26
2019-03-29T22:00:45.324Z,67.26
2019-03-29T22:03:17.865Z,67.53
2019-03-29T22:05:50.422Z,67.73
2019-03-29T22:08:23.102Z,67.36
2019-03-29T22:10:55.712Z,67.03
2019-03-29T22:13:28.269Z,66.85
2019-03-29T22:16:00.927Z,66.97
2019-03-29T22:18:38.128Z,67.10
2019-03-29T22:21:07.936Z,67.40
2019-03-29T22:23:40.466Z,67.63
2019-03-29T22:26:13.052Z,68.10
2019-03-29T22:28:45.622Z,68.26
2019-03-29T22:31:18.177Z,68.18
2019-03-29T22:33:50.706Z,68.12
2019-03-29T22:36:23.253Z,68.09
2019-03-29T22:38:55.789Z,68.39
2019-03-29T22:41:28.343Z,68.89
2019-03-29T22:44:00.886Z,68.87
2019-03-29T22:46:33.444Z,68.93
2019-03-29T22:49:06.076Z,69.45
2019-03-29T22:51:38.615Z,69.35
2019-03-29T22:54:11.117Z,69.50
2019-03-29T22:56:43.645Z,69.37
2019-03-29T22:59:16.164Z,69.72
2019-03-29T23:01:48.725Z,69.28
2019-03-29T23:04:21.290Z,69.58
2019-03-29T23:06:53.837Z,69.56
2019-03-29T23:09:26.399Z,69.79
2019-03-29T23:11:59.068Z,70.19
2019-03-29T23:14:31.604Z,70.30
2019-03-29T23:17:04.170Z,69.55
2019-03-29T23:19:36.720Z,69.25
2019-03-29T23:22:09.312Z,69.53
2019-03-29T23:24:41.814Z,70.09
2019-03-29T23:27:14.337Z,70.35
2019-03-29T23:29:47.258Z,70.60
2019-03-29T23:32:19.868Z,70.67
2019-03-29T23:34:52.355Z,70.53
2019-03-29T23:37:24.881Z,70.42
2019-03-29T23:39:57.374Z,70.26
2019-03-29T23:42:29.902Z,70.19
2019-03-29T23:45:02.407Z,70.10
2019-03-29T23:47:34.969Z,70.23
2019-03-29T23:50:07.566Z,70.24
2019-03-29T23:52:40.139Z,70.14
2019-03-29T23:55:12.627Z,70.28
2019-03-29T23:57:45.149Z,70.56
